Stumpy Point, North Carolina
Current Conditions -  °F | °C
As of 10:56 PM on Friday 24 Oct 2014 (Local Time) from K2DP Reporting Station
Clear Clear  
Wind Chill: 45°   Ceiling: Unl
Heat Index: 47°   Visibility: 10mi
Dew Point: 46°   Wind: 6mph
Humidity: 94%   Direction: 300°WNW
Pressure: 29.98"   Gusts: NA
Location:  35.7°N, 75.74°W
Report Text: K2DP 250256Z AUTO 30005KT 10SM CLR 09/08 A2998 RMK AO2 SLPNO T00860077 52009
Loading
Personal Weather Stations






























Interactive Weather Map
Tropical Storm Tracking
New forecast layout! Learn more

10-Day Weather Forecast

Advertisements
Track Severe Weather on mobile